Bei Facebook empfehlenBei Twitter postenGoogle plusPinterest

Das Wetter im Erzgebirge am 28.06.2016

Wetter und Klima am 28.06.2016 Holzhau im Erzgebirge (630m ü.NN)
Letzte gemessene Temperatur und Uhrzeit der Messung23:45:00 Uhr12.30 °C
Temperatur (Maximum / Höchstwert) und Uhrzeit der Messung17:15:00 Uhr21.90 °C
Temperatur (Minimum / Tiefstwert) und Uhrzeit der Messung03:00:007.60 °C
Errechneter Absolutwert der Temperaturschwankungen zwischen Tmin und Tmax des Tages14.30 K
Errechnete Tagesmitteltemperatur15.18750 °C
Gesamt - Niederschlag des Tages (in flüssiger Form)2.59 Liter / m²
Luftdruck (Maximum / Höchstwert) und Zeitpunkt der Messung00:45:00 Uhr1016.50 hPa
Luftdruck (Minimum / Tiefstwert) und Zeitpunkt der Messung23:45:00 Uhr1013.00 hPa
Errechneter Absolutwert der Luftdruckschwankungen des Tages3.50 hPa
Höchste gemessene Windgeschwindigkeit und Uhrzeit der Messung23:45:00 Uhr0.00 km/h
Errechnete Windhäufigkeit in Relation zu den Messwerten des Tages0.00000 %
Niedrigste Windkühle (Windchill) und Zeitpunkt der Messung03:00:00 Uhr7.60 °C
Taupunkt (Maximum / Höchstwert) und Uhrzeit der Messung14:30:00 Uhr16.30 °C
Taupunkt (Minimum / Tiefstwert) und Uhrzeit der Messung00:30:005.50 °C
Anzahl der automatisch eingelesenen Messwerte 96

Detaillierte Wetter- und Klima- Messwerte für den 28.06.2016 in Holzhau im Erzgebirge (630m ü.NN)
ZeitTemperaturLuftdruckRel. LuftfeuchteWindWindrichtungWindchillTaupunktNiederschlag l/m²
23:45:0012.30 °C1013.00 hPa89.00 %10.50 °C2.59
23:30:0012.30 °C1013.10 hPa89.00 %10.50 °C2.59
23:15:0012.30 °C1013.20 hPa88.00 %10.40 °C2.59
23:00:0012.40 °C1013.50 hPa87.00 %10.30 °C2.59
22:45:0012.40 °C1013.50 hPa87.00 %10.30 °C2.59
22:30:0012.60 °C1013.60 hPa86.00 %10.30 °C2.59
22:15:0013.10 °C1013.60 hPa85.00 %10.60 °C2.59
22:00:0013.60 °C1013.90 hPa84.00 %11.00 °C2.59
21:45:0014.30 °C1013.90 hPa83.00 %11.50 °C2.59
21:30:0014.90 °C1013.80 hPa82.00 %11.90 °C2.59
21:15:0015.40 °C1014.00 hPa81.00 %12.20 °C2.59
21:00:0015.60 °C1014.00 hPa80.00 %12.20 °C2.59
20:45:0015.90 °C1014.20 hPa78.00 %12.10 °C2.59
20:30:0016.30 °C1014.10 hPa77.00 %12.30 °C2.59
20:15:0016.90 °C1014.10 hPa75.00 %12.40 °C2.59
20:00:0017.70 °C1014.00 hPa73.00 %12.80 °C2.59
19:45:0018.30 °C1014.10 hPa70.00 %12.70 °C2.59
19:30:0018.80 °C1014.10 hPa68.00 %12.80 °C2.59
19:15:0019.50 °C1014.10 hPa66.00 %13.00 °C2.59
19:00:0020.30 °C1014.20 hPa65.00 %13.50 °C2.59
18:45:0020.20 °C1014.10 hPa66.00 %13.60 °C2.59
18:30:0020.30 °C1014.20 hPa66.00 %13.70 °C2.59
18:15:0020.40 °C1014.40 hPa65.00 %13.60 °C2.59
18:00:0020.60 °C1014.60 hPa65.00 %13.80 °C2.59
17:45:0020.60 °C1014.50 hPa64.00 %13.60 °C2.59
17:30:0021.30 °C1014.90 hPa63.00 %14.00 °C2.59
17:15:0021.90 °C1014.90 hPa63.00 %14.50 °C2.59
17:00:0021.80 °C1014.80 hPa64.00 %14.70 °C2.59
16:45:0021.20 °C1014.40 hPa65.00 %14.40 °C2.59
16:30:0021.30 °C1014.70 hPa65.00 %14.50 °C2.59
16:15:0021.20 °C1014.70 hPa66.00 %14.60 °C2.59
16:00:0020.30 °C1015.10 hPa67.00 %14.00 °C2.59
15:45:0020.40 °C1015.00 hPa67.00 %14.10 °C2.59
15:30:0020.80 °C1015.20 hPa67.00 %14.50 °C2.59
15:15:0020.90 °C1015.20 hPa68.00 %14.80 °C2.59
15:00:0020.80 °C1015.10 hPa69.00 %14.90 °C2.59
14:45:0020.90 °C1015.10 hPa70.00 %15.20 °C2.59
14:30:0021.30 °C1015.20 hPa73.00 %16.30 °C2.59
14:15:0020.50 °C1015.40 hPa76.00 %16.10 °C2.59
14:00:0019.60 °C1015.50 hPa79.00 %15.90 °C2.59
13:45:0019.50 °C1015.60 hPa80.00 %16.00 °C2.59
13:30:0018.80 °C1015.50 hPa84.00 %16.00 °C2.59
13:15:0017.80 °C1015.60 hPa84.00 %15.10 °C2.59
13:00:0017.40 °C1015.60 hPa85.00 %14.90 °C2.59
12:45:0016.90 °C1015.60 hPa86.00 %14.50 °C2.59
12:30:0015.80 °C1015.40 hPa83.00 %12.90 °C2.59
12:15:0016.70 °C1015.40 hPa79.00 %13.00 °C2.59
12:00:0018.60 °C1015.30 hPa74.00 %13.90 °C0.52
11:45:0020.80 °C1015.00 hPa70.00 %15.10 °C0.52
11:30:0021.10 °C1015.10 hPa72.00 %15.90 °C0.52
11:15:0020.20 °C1015.10 hPa74.00 %15.40 °C0.52
11:00:0019.80 °C1015.20 hPa74.00 %15.00 °C0.52
10:45:0020.10 °C1015.00 hPa77.00 %15.90 °C0.52
10:30:0018.40 °C1015.20 hPa77.00 %14.30 °C0.52
10:15:0018.50 °C1015.30 hPa76.00 %14.20 °C0.52
10:00:0019.60 °C1015.20 hPa77.00 %15.50 °C0.52
09:45:0018.80 °C1015.20 hPa81.00 %15.50 °C0.52
09:30:0018.30 °C1015.20 hPa83.00 %15.40 °C0.52
09:15:0017.10 °C1015.20 hPa85.00 %14.60 °C0.52
09:00:0016.90 °C1015.10 hPa87.00 %14.70 °C0.52
08:45:0016.80 °C1015.00 hPa89.00 %15.00 °C0.52
08:30:0015.50 °C1015.00 hPa90.00 %13.90 °C0.52
08:15:0015.60 °C1015.20 hPa90.00 %14.00 °C0.52
08:00:0015.60 °C1015.10 hPa91.00 %14.10 °C0.52
07:45:0015.80 °C1015.00 hPa93.00 %14.70 °C0.52
07:30:0014.20 °C1015.10 hPa94.00 %13.20 °C0.52
07:15:0013.20 °C1015.10 hPa93.00 %12.10 °C0.52
07:00:0011.90 °C1015.00 hPa92.00 %10.60 °C0.52
06:45:0011.40 °C1015.20 hPa92.00 %10.10 °C0.52
06:30:0011.30 °C1015.20 hPa92.00 %10.00 °C0.52
06:15:0011.00 °C1015.40 hPa92.00 %9.80 °C0.52
06:00:0010.60 °C1015.30 hPa91.00 %9.20 °C0.52
05:45:0010.10 °C1015.40 hPa91.00 %8.70 °C0.52
05:30:009.80 °C1015.30 hPa91.00 %8.40 °C0.52
05:15:009.50 °C1015.30 hPa90.00 %7.90 °C0.52
05:00:009.30 °C1015.30 hPa90.00 %7.70 °C0.52
04:45:009.40 °C1015.60 hPa90.00 %7.80 °C0.52
04:30:009.40 °C1015.50 hPa90.00 %7.80 °C 
04:15:009.30 °C1015.20 hPa90.00 %7.70 °C 
04:00:008.90 °C1015.30 hPa90.00 %7.40 °C 
03:45:008.60 °C1015.70 hPa90.00 %7.10 °C 
03:30:008.20 °C1015.70 hPa90.00 %6.70 °C 
03:15:007.70 °C1015.70 hPa89.00 %6.00 °C 
03:00:007.60 °C1015.90 hPa89.00 %5.90 °C 
02:45:007.60 °C1015.80 hPa88.00 %5.70 °C 
02:30:007.80 °C1015.90 hPa88.00 %5.90 °C 
02:15:008.10 °C1016.00 hPa88.00 %6.20 °C 
02:00:008.10 °C1016.00 hPa88.00 %6.20 °C 
01:45:007.90 °C1016.00 hPa88.00 %6.00 °C 
01:30:007.60 °C1016.00 hPa87.00 %5.60 °C 
01:15:007.80 °C1016.10 hPa87.00 %5.80 °C 
01:00:007.80 °C1016.30 hPa86.00 %5.60 °C 
00:45:007.90 °C1016.50 hPa86.00 %5.70 °C 
00:30:007.90 °C1016.20 hPa85.00 %5.50 °C 
00:15:008.10 °C1016.30 hPa84.00 %5.60 °C 
00:00:008.40 °C1016.40 hPa83.00 %5.70 °C 

Permanenter Link zu dieser Seite: Wetter im Erzgebirge am 28.06.2016
Performance-Info: Die Erstellung der Seite / Statistik(en) / Tabelle(n) erforderte 5 Datenbankserver-Abfrage(n) und dauerte 101 Millisekunden. (Dieser Messwert ist von der Gesamt-Auslastung des Servers abhängig.)
Erzgebirge - Wetter | Erzgebirge - Wetter (Mobilgeräte) | Komplette Klimadatenbank